Salem, MA

5:45 AM EDT on March 29, 2015 (GMT -0400)
Essex Street near Beckford | | Change Station
CLOSE
Current Station
Personal Weather Station
Location: Salem, MA
Elevation: 46 ft
Nearby Weather Stations

Elev 46 ft 42.52 °N, 70.90 °W | Updated 5 minutes ago

Overcast
Overcast
26.4 °F
Feels Like 26 °F
N
0.0
Wind Variable Wind from NNW
Gusts 17.0 mph

Today
High -- | Low -- °F
--% Chance of Precip.
Yesterday
High -- | Low -- °F
Precip. -- in
6:31 AM 7:05 PM
Waxing Gibbous, 70% visible
Pressure 30.09 in
Visibility 10.0 miles
Clouds Overcast 4500 ft
Windchill 26 °F
Dew Point 12 °F
Humidity 54%
Rainfall 0.02 in
Snow Depth Not available.
UV 0 out of 12
Pollen .90 out of 12
Air Quality Not available.
Flu Activity Not available.
METAR KBVY 290853Z AUTO 32009KT 10SM OVC045 M03/M13 A3009 RMK AO2 SLP187 T10331133 53015

More Conditions Fewer Conditions

Pressure 30.09 in
Visibility 10.0 miles
Clouds Overcast 4500 ft
Windchill 26 °F
Dew Point 12 °F
Humidity 54%
Rainfall 0.02 in
Snow Depth Not available.
UV 0 out of 12
Pollen .90 out of 12
Air Quality Not available.
Flu Activity Not available.
METAR KBVY 290853Z AUTO 32009KT 10SM OVC045 M03/M13 A3009 RMK AO2 SLP187 T10331133 53015

More Conditions Fewer Conditions

10-Day Weather Forecast

Almanac

Astronomy

Mar. 29, 2015 Rise Set
Actual Time
Civil Twilight
Nautical Twilight
Astronomical Twilight
Moon
Length of Visible Light
Length of Day
Tomorrow will be .
, % of the Moon is Illuminated

Today's Extremes

State Highs State Lows

Community

WunderPhotos

Upload Photos

1,809,199 photos uploaded!

WunderBlogs® & News

Nearby

Air Quality

  Air Quality AQ Index Pollutant
Not available.

Snow Depth

Station Depth Elevation

Earthquake Activity

City Distance Mag. Time & Date
Minimum magnitude displayed is 2.5.

Coastal Water Temperatures

Place Temperature

Stations

Nearby Weather Stations

Station Location Temp. Windchill Dew Point Humidity Wind Precip. Elev Updated Type